Time;durP1;ratioP1;P1;durP2;ratioP2;P2;SDS_P1;SDS_P2;PMS_P1;PMS_P2;Temp;Humidity;BMP_temperature;BMP_pressure;BME280_temperature;BME280_humidity;BME280_pressure;Samples;Min_cycle;Max_cycle;Signal;HPM_P1;HPM_P2
2024/01/13 00:00:44;;;;;;;5.25;4.00;;;5.10;78.90;;;;;;4736747;30;20044;-87
2024/01/13 00:03:10;;;;;;;5.00;4.07;;;5.10;78.90;;;;;;4735245;30;21900;-88
2024/01/13 00:05:35;;;;;;;5.30;3.90;;;5.10;78.90;;;;;;4731524;30;20104;-88
2024/01/13 00:08:01;;;;;;;4.75;3.83;;;5.10;78.90;;;;;;4735264;30;20107;-88
2024/01/13 00:10:27;;;;;;;5.78;4.10;;;5.10;78.90;;;;;;4731180;30;20036;-88
2024/01/13 00:12:52;;;;;;;4.40;3.83;;;5.10;78.90;;;;;;4714459;30;20033;-88
2024/01/13 00:15:19;;;;;;;5.03;4.13;;;5.10;78.90;;;;;;4735291;30;20085;-87
2024/01/13 00:17:45;;;;;;;5.72;4.18;;;5.10;78.90;;;;;;4737714;30;20642;-88
2024/01/13 00:20:10;;;;;;;5.40;4.10;;;5.10;78.90;;;;;;4735850;30;20036;-88
2024/01/13 00:22:36;;;;;;;5.03;3.97;;;5.10;79.00;;;;;;4729520;30;20468;-87
2024/01/13 00:25:02;;;;;;;4.60;4.00;;;5.10;79.00;;;;;;4736836;30;20036;-87
2024/01/13 00:27:28;;;;;;;5.30;3.72;;;5.10;78.90;;;;;;4738545;30;20135;-87
2024/01/13 00:29:54;;;;;;;5.07;3.95;;;5.10;79.00;;;;;;4719955;30;20174;-88
2024/01/13 00:32:20;;;;;;;5.45;4.00;;;5.10;79.00;;;;;;4719062;30;20524;-88
2024/01/13 00:34:45;;;;;;;6.90;4.38;;;5.10;79.00;;;;;;4737061;30;20537;-88
2024/01/13 00:37:11;;;;;;;5.15;4.20;;;5.10;79.00;;;;;;4718187;30;20122;-87
2024/01/13 00:39:37;;;;;;;5.32;4.20;;;5.10;79.00;;;;;;4737181;30;20028;-88
2024/01/13 00:42:03;;;;;;;5.03;3.83;;;5.10;79.00;;;;;;4747761;30;20036;-87
2024/01/13 00:44:28;;;;;;;5.57;4.40;;;5.10;79.00;;;;;;4723234;30;20461;-87
2024/01/13 00:46:54;;;;;;;5.00;3.72;;;5.10;79.00;;;;;;4746960;30;20450;-88
2024/01/13 00:49:20;;;;;;;6.32;4.15;;;5.10;79.00;;;;;;4721529;30;20123;-88
2024/01/13 00:51:45;;;;;;;5.95;4.20;;;5.10;79.00;;;;;;4736168;30;20119;-88
2024/01/13 00:54:11;;;;;;;5.60;3.97;;;5.10;79.00;;;;;;4735432;30;20039;-88
2024/01/13 00:56:37;;;;;;;5.57;4.13;;;5.10;79.00;;;;;;4744935;30;20505;-87
2024/01/13 00:59:03;;;;;;;6.13;4.45;;;5.10;79.00;;;;;;4734922;30;20032;-88
2024/01/13 01:01:29;;;;;;;5.25;4.03;;;5.10;79.00;;;;;;4721526;30;20497;-88
2024/01/13 01:03:54;;;;;;;4.68;3.72;;;5.10;79.00;;;;;;4735567;30;20050;-88
2024/01/13 01:06:20;;;;;;;4.82;3.60;;;5.10;79.00;;;;;;4721145;30;20095;-88
2024/01/13 01:08:46;;;;;;;4.63;3.75;;;5.10;79.00;;;;;;4734237;30;20109;-88
2024/01/13 01:11:11;;;;;;;5.57;3.78;;;5.10;79.00;;;;;;4729083;30;20190;-88
2024/01/13 01:13:38;;;;;;;4.60;3.63;;;5.10;79.00;;;;;;4732154;30;20089;-88
2024/01/13 01:16:04;;;;;;;5.90;4.28;;;5.10;79.00;;;;;;4717915;30;20090;-87
2024/01/13 01:18:30;;;;;;;5.30;4.07;;;5.10;79.00;;;;;;4720050;30;20131;-87
2024/01/13 01:20:55;;;;;;;5.20;4.05;;;5.10;79.00;;;;;;4715104;30;20190;-88
2024/01/13 01:23:21;;;;;;;5.15;4.25;;;5.10;79.00;;;;;;4733168;30;20044;-88
2024/01/13 01:25:47;;;;;;;5.53;4.13;;;5.10;79.00;;;;;;4735982;30;20043;-87
2024/01/13 01:28:13;;;;;;;5.45;4.20;;;5.10;79.00;;;;;;4714829;30;20020;-87
2024/01/13 01:30:38;;;;;;;6.30;4.72;;;5.10;79.00;;;;;;4737723;30;20040;-88
2024/01/13 01:33:04;;;;;;;5.63;4.10;;;5.10;79.00;;;;;;4734381;30;20044;-88
2024/01/13 01:35:30;;;;;;;5.20;4.38;;;5.10;79.00;;;;;;4718712;30;20036;-88
2024/01/13 01:37:56;;;;;;;6.53;4.55;;;5.10;79.00;;;;;;4719018;30;20089;-88
2024/01/13 01:40:26;;;;;;;6.03;4.30;;;5.10;79.00;;;;;;4733426;30;20117;-88
2024/01/13 01:42:52;;;;;;;6.03;4.63;;;5.20;79.00;;;;;;4731487;30;20120;-87
2024/01/13 01:45:18;;;;;;;5.82;4.25;;;5.10;78.90;;;;;;4733616;30;20115;-88
2024/01/13 01:47:45;;;;;;;5.57;4.68;;;5.10;79.00;;;;;;4733793;30;20036;-88
2024/01/13 01:50:11;;;;;;;5.78;4.53;;;5.10;78.90;;;;;;4735640;30;20060;-88
2024/01/13 01:52:38;;;;;;;5.53;4.40;;;5.10;79.00;;;;;;4719636;30;20033;-88
2024/01/13 01:55:05;;;;;;;5.60;4.22;;;5.20;79.00;;;;;;4735198;30;20032;-88
2024/01/13 01:57:35;;;;;;;5.45;4.13;;;5.10;79.00;;;;;;4737616;30;20040;-88
2024/01/13 02:00:01;;;;;;;6.18;4.85;;;5.10;79.00;;;;;;4732377;30;20036;-87
2024/01/13 02:02:26;;;;;;;5.95;4.50;;;5.20;79.00;;;;;;4730603;30;20032;-88
2024/01/13 02:04:52;;;;;;;6.88;4.97;;;5.20;79.00;;;;;;4719631;30;20050;-88
2024/01/13 02:07:18;;;;;;;7.50;5.10;;;5.20;79.00;;;;;;4729885;30;20478;-88
2024/01/13 02:09:46;;;;;;;6.30;4.93;;;5.20;79.00;;;;;;4726502;30;20314;-88
2024/01/13 02:12:12;;;;;;;5.95;4.65;;;5.10;79.00;;;;;;4733943;30;20020;-87
2024/01/13 02:14:38;;;;;;;7.10;5.10;;;5.20;78.80;;;;;;4734779;30;20408;-87
2024/01/13 02:17:04;;;;;;;7.10;4.55;;;5.20;79.00;;;;;;4718639;30;20083;-88
2024/01/13 02:19:32;;;;;;;7.93;5.38;;;5.20;79.00;;;;;;4712953;30;20032;-88
2024/01/13 02:21:58;;;;;;;5.72;4.40;;;5.20;79.00;;;;;;4728752;30;20036;-87
2024/01/13 02:24:24;;;;;;;6.82;4.97;;;5.20;79.00;;;;;;4724234;30;20116;-87
2024/01/13 02:26:50;;;;;;;6.32;4.80;;;5.20;79.00;;;;;;4727703;30;20071;-88
2024/01/13 02:29:15;;;;;;;6.07;4.55;;;5.20;79.00;;;;;;4723305;30;20024;-87
2024/01/13 02:31:41;;;;;;;6.68;5.22;;;5.20;79.00;;;;;;4723366;30;20048;-87
2024/01/13 02:34:07;;;;;;;5.97;4.68;;;5.20;79.00;;;;;;4723806;30;20044;-88
2024/01/13 02:36:33;;;;;;;6.05;4.60;;;5.20;79.00;;;;;;4738178;30;20406;-87
2024/01/13 02:38:58;;;;;;;7.30;4.68;;;5.20;79.00;;;;;;4717398;30;20048;-87
2024/01/13 02:41:24;;;;;;;6.57;5.10;;;5.20;79.00;;;;;;4725258;30;20037;-87
2024/01/13 02:43:50;;;;;;;6.28;4.90;;;5.20;79.00;;;;;;4735248;30;20032;-87
2024/01/13 02:46:16;;;;;;;7.10;4.80;;;5.20;79.00;;;;;;4739973;30;20028;-88
2024/01/13 02:48:45;;;;;;;5.88;4.45;;;5.20;79.00;;;;;;4737966;30;20033;-87
2024/01/13 02:51:14;;;;;;;6.47;4.97;;;5.20;79.00;;;;;;4729861;30;20520;-87
2024/01/13 02:53:40;;;;;;;6.10;4.50;;;5.20;79.00;;;;;;4739495;30;20039;-87
2024/01/13 02:56:06;;;;;;;6.38;5.00;;;5.20;79.00;;;;;;4722171;30;20025;-88
2024/01/13 02:58:32;;;;;;;6.10;4.68;;;5.20;79.00;;;;;;4721175;30;20040;-88
2024/01/13 03:00:58;;;;;;;6.15;4.82;;;5.20;79.00;;;;;;4734299;30;20037;-88
2024/01/13 03:03:24;;;;;;;5.97;4.50;;;5.20;79.00;;;;;;4739109;30;20024;-87
2024/01/13 03:05:50;;;;;;;5.97;4.63;;;5.20;79.00;;;;;;4738760;30;20552;-87
2024/01/13 03:08:15;;;;;;;7.05;5.10;;;5.20;79.00;;;;;;4736014;30;20401;-88
2024/01/13 03:10:41;;;;;;;6.18;4.72;;;5.20;79.00;;;;;;4747240;30;20036;-88
2024/01/13 03:13:07;;;;;;;6.75;4.85;;;5.20;79.00;;;;;;4720998;30;20233;-88
2024/01/13 03:15:32;;;;;;;5.63;4.43;;;5.20;79.00;;;;;;4736706;30;20042;-88
2024/01/13 03:17:58;;;;;;;6.55;4.70;;;5.20;79.00;;;;;;4732978;30;20109;-88
2024/01/13 03:20:24;;;;;;;6.22;4.72;;;5.20;79.00;;;;;;4729764;30;20163;-88
2024/01/13 03:22:50;;;;;;;6.47;4.90;;;5.20;79.00;;;;;;4738292;30;20103;-88
2024/01/13 03:25:15;;;;;;;6.38;4.60;;;5.20;79.00;;;;;;4733049;30;20394;-88
2024/01/13 03:27:41;;;;;;;5.38;4.28;;;5.20;79.00;;;;;;4737339;30;20032;-87
2024/01/13 03:30:07;;;;;;;5.65;4.25;;;5.20;79.00;;;;;;4734816;30;20107;-88
2024/01/13 03:32:33;;;;;;;6.07;4.60;;;5.20;79.00;;;;;;4738566;30;20059;-88
2024/01/13 03:34:59;;;;;;;5.65;4.32;;;5.20;79.60;;;;;;4738615;30;20031;-88
2024/01/13 03:37:24;;;;;;;5.70;4.30;;;5.20;79.00;;;;;;4719944;30;20096;-87
2024/01/13 03:39:50;;;;;;;6.45;4.88;;;5.20;79.00;;;;;;4721383;30;20369;-88
2024/01/13 03:42:16;;;;;;;5.47;4.28;;;5.20;79.00;;;;;;4743211;30;20036;-88
2024/01/13 03:44:42;;;;;;;6.20;4.53;;;5.20;79.00;;;;;;4727448;30;20523;-87
2024/01/13 03:47:07;;;;;;;5.90;4.10;;;5.20;79.00;;;;;;4719135;30;20044;-88
2024/01/13 03:49:33;;;;;;;5.45;3.88;;;5.20;79.00;;;;;;4720575;30;20028;-87
2024/01/13 03:51:59;;;;;;;5.72;4.35;;;5.20;79.00;;;;;;4717321;30;20032;-87
2024/01/13 03:54:25;;;;;;;5.60;4.15;;;5.20;78.90;;;;;;4721227;30;20551;-88
2024/01/13 03:56:51;;;;;;;5.85;4.50;;;5.20;78.90;;;;;;4734035;30;20033;-87
2024/01/13 03:59:17;;;;;;;5.15;4.05;;;5.30;79.00;;;;;;4744988;30;20039;-88
2024/01/13 04:01:43;;;;;;;4.78;3.63;;;5.30;79.00;;;;;;4721186;30;20028;-87
2024/01/13 04:04:09;;;;;;;5.85;4.30;;;5.30;79.00;;;;;;4751862;30;20036;-87
2024/01/13 04:06:41;;;;;;;6.28;4.57;;;5.30;79.00;;;;;;4733272;30;20028;-88
2024/01/13 04:09:08;;;;;;;5.75;4.28;;;5.30;79.00;;;;;;4717701;30;20125;-88
2024/01/13 04:11:34;;;;;;;5.78;4.45;;;5.30;79.00;;;;;;4729532;30;20059;-88
2024/01/13 04:13:59;;;;;;;6.28;4.50;;;5.30;79.00;;;;;;4730317;30;20058;-88
2024/01/13 04:16:25;;;;;;;5.68;4.20;;;5.30;79.00;;;;;;4723003;30;20127;-88
2024/01/13 04:18:51;;;;;;;5.75;4.22;;;5.30;79.00;;;;;;4722916;30;20051;-88
2024/01/13 04:21:17;;;;;;;5.13;3.90;;;5.30;79.00;;;;;;4748856;30;20069;-88
2024/01/13 04:23:43;;;;;;;5.32;4.03;;;5.30;79.00;;;;;;4721914;30;20226;-87
2024/01/13 04:26:08;;;;;;;5.85;4.25;;;5.30;79.00;;;;;;4720903;30;20584;-88
2024/01/13 04:28:34;;;;;;;7.00;4.85;;;5.30;79.00;;;;;;4732079;30;20032;-87
2024/01/13 04:31:00;;;;;;;5.53;4.05;;;5.30;79.00;;;;;;4734944;30;20036;-87
2024/01/13 04:33:26;;;;;;;6.35;4.30;;;5.30;79.00;;;;;;4733112;30;20056;-88
2024/01/13 04:35:52;;;;;;;6.32;4.45;;;5.30;79.00;;;;;;4720615;30;20501;-87
2024/01/13 04:38:18;;;;;;;6.45;4.90;;;5.30;79.00;;;;;;4743120;30;20520;-87
2024/01/13 04:40:47;;;;;;;6.10;4.32;;;5.30;79.00;;;;;;4746913;30;20040;-88
2024/01/13 04:43:13;;;;;;;6.20;4.65;;;5.30;79.00;;;;;;4718216;30;20119;-88
2024/01/13 04:45:39;;;;;;;6.03;4.32;;;5.30;79.00;;;;;;4719770;30;20035;-87
2024/01/13 04:48:05;;;;;;;5.82;4.53;;;5.30;79.00;;;;;;4735549;30;20673;-88
2024/01/13 04:50:31;;;;;;;5.90;4.45;;;5.30;79.00;;;;;;4723132;30;20044;-87
2024/01/13 04:52:57;;;;;;;6.43;4.40;;;5.30;79.00;;;;;;4717122;30;20054;-87
2024/01/13 04:55:23;;;;;;;6.28;4.50;;;5.30;78.90;;;;;;4731672;30;20474;-87
2024/01/13 04:57:48;;;;;;;6.20;4.80;;;5.40;79.00;;;;;;4715953;30;20063;-88
2024/01/13 05:00:15;;;;;;;6.43;4.45;;;5.30;78.90;;;;;;4738233;30;20039;-88
2024/01/13 05:02:41;;;;;;;6.45;5.03;;;5.30;79.00;;;;;;4733683;30;20107;-88
2024/01/13 05:05:07;;;;;;;6.68;5.18;;;5.30;78.90;;;;;;4723142;30;20119;-88
2024/01/13 05:07:32;;;;;;;6.32;4.90;;;5.30;79.00;;;;;;4719457;30;20054;-88
2024/01/13 05:09:58;;;;;;;7.03;5.38;;;5.40;79.00;;;;;;4743833;30;20217;-88
2024/01/13 05:12:24;;;;;;;6.30;4.60;;;5.30;78.90;;;;;;4737945;30;20032;-88
2024/01/13 05:14:49;;;;;;;6.53;5.30;;;5.40;79.00;;;;;;4718668;30;20375;-88
2024/01/13 05:17:15;;;;;;;6.50;4.95;;;5.30;78.90;;;;;;4719972;30;20117;-88
2024/01/13 05:19:41;;;;;;;6.28;4.80;;;5.40;79.00;;;;;;4721240;30;20111;-87
2024/01/13 05:22:07;;;;;;;7.47;5.15;;;5.40;79.00;;;;;;4717458;30;20126;-88
2024/01/13 05:24:32;;;;;;;7.10;5.40;;;5.40;79.00;;;;;;4735261;30;20138;-88
2024/01/13 05:26:58;;;;;;;7.03;5.18;;;5.40;79.00;;;;;;4732997;30;20039;-88
2024/01/13 05:29:24;;;;;;;6.57;5.13;;;5.40;78.90;;;;;;4732373;30;20028;-88
2024/01/13 05:31:49;;;;;;;7.53;5.43;;;5.40;79.00;;;;;;4736007;30;20470;-87
2024/01/13 05:34:15;;;;;;;6.90;5.35;;;5.40;79.00;;;;;;4722362;30;20048;-88
2024/01/13 05:36:41;;;;;;;6.93;5.18;;;5.40;78.90;;;;;;4738533;30;20520;-87
2024/01/13 05:39:07;;;;;;;6.60;5.28;;;5.40;78.90;;;;;;4733558;30;20028;-87
2024/01/13 05:41:32;;;;;;;6.60;4.85;;;5.40;78.90;;;;;;4736130;30;20040;-87
2024/01/13 05:43:58;;;;;;;6.53;5.07;;;5.40;78.90;;;;;;4727841;30;20120;-87
2024/01/13 05:46:24;;;;;;;6.80;5.22;;;5.40;78.90;;;;;;4721189;30;20033;-88
2024/01/13 05:48:51;;;;;;;7.20;5.30;;;5.40;78.90;;;;;;4746747;30;20032;-88
2024/01/13 05:51:16;;;;;;;7.80;5.63;;;5.40;78.90;;;;;;4731339;30;20101;-87
2024/01/13 05:53:43;;;;;;;6.65;5.00;;;5.40;78.90;;;;;;4718095;30;20032;-88
2024/01/13 05:56:09;;;;;;;6.72;5.03;;;5.40;78.90;;;;;;4732114;30;20028;-88
2024/01/13 05:58:34;;;;;;;7.28;5.50;;;5.40;78.90;;;;;;4719556;30;20035;-88
2024/01/13 06:01:00;;;;;;;7.28;5.10;;;5.40;78.90;;;;;;4719166;30;20046;-88
2024/01/13 06:03:26;;;;;;;7.65;5.75;;;5.40;78.90;;;;;;4722366;30;20075;-88
2024/01/13 06:05:52;;;;;;;5.97;4.55;;;5.40;78.90;;;;;;4739859;30;20489;-87
2024/01/13 06:08:18;;;;;;;6.35;4.90;;;5.40;78.90;;;;;;4714042;30;20585;-88
2024/01/13 06:10:43;;;;;;;7.38;5.43;;;5.40;78.90;;;;;;4740032;30;20140;-88
2024/01/13 06:13:09;;;;;;;6.03;4.82;;;5.50;78.90;;;;;;4723264;30;20045;-87
2024/01/13 06:15:35;;;;;;;7.10;5.40;;;5.40;78.90;;;;;;4724728;30;20040;-88
2024/01/13 06:18:01;;;;;;;7.22;5.78;;;5.40;78.90;;;;;;4736566;30;20040;-88
2024/01/13 06:20:27;;;;;;;6.75;5.40;;;5.40;78.90;;;;;;4751112;30;20059;-88
2024/01/13 06:22:52;;;;;;;6.38;5.07;;;5.40;78.90;;;;;;4736444;30;20040;-88
2024/01/13 06:25:18;;;;;;;6.03;4.85;;;5.40;78.90;;;;;;4737924;30;20036;-88
2024/01/13 06:27:44;;;;;;;6.55;5.28;;;5.40;78.90;;;;;;4724596;30;20035;-88
2024/01/13 06:30:12;;;;;;;6.57;5.00;;;5.50;78.90;;;;;;4735657;30;20500;-87
2024/01/13 06:32:37;;;;;;;6.10;5.13;;;5.50;78.90;;;;;;4738357;30;20078;-88
2024/01/13 06:35:04;;;;;;;6.28;5.05;;;5.50;78.90;;;;;;4724775;30;20052;-88
2024/01/13 06:37:29;;;;;;;6.80;5.63;;;5.50;78.90;;;;;;4736811;30;20032;-88
2024/01/13 06:39:55;;;;;;;6.68;5.22;;;5.50;78.90;;;;;;4724229;30;20123;-87
2024/01/13 06:42:21;;;;;;;6.95;5.63;;;5.50;78.90;;;;;;4719179;30;20028;-88
2024/01/13 06:44:48;;;;;;;5.30;4.40;;;5.50;78.90;;;;;;4750198;30;20092;-88
2024/01/13 06:47:14;;;;;;;6.80;4.93;;;5.50;78.90;;;;;;4753254;30;20486;-88
2024/01/13 06:49:40;;;;;;;6.88;5.25;;;5.50;78.90;;;;;;4747022;30;20112;-88
2024/01/13 06:52:08;;;;;;;6.50;4.90;;;5.50;78.90;;;;;;4732425;30;20028;-88
2024/01/13 06:54:35;;;;;;;7.03;4.97;;;5.50;78.90;;;;;;4746998;30;20039;-88
2024/01/13 06:57:01;;;;;;;6.03;4.88;;;5.50;78.90;;;;;;4722561;30;20044;-87
2024/01/13 06:59:27;;;;;;;8.18;5.60;;;5.50;78.90;;;;;;4732891;30;20120;-88
2024/01/13 07:01:52;;;;;;;6.22;4.80;;;5.50;78.80;;;;;;4726311;30;20058;-88
2024/01/13 07:04:18;;;;;;;6.05;4.82;;;5.50;78.90;;;;;;4724907;30;20028;-88
2024/01/13 07:06:44;;;;;;;6.32;4.95;;;5.50;78.90;;;;;;4748226;30;20028;-88
2024/01/13 07:09:09;;;;;;;5.95;4.65;;;5.50;78.90;;;;;;4735649;30;20078;-88
2024/01/13 07:11:35;;;;;;;6.55;5.13;;;5.50;78.80;;;;;;4721852;30;20047;-88
2024/01/13 07:14:01;;;;;;;5.93;4.70;;;5.50;78.80;;;;;;4746253;30;20032;-88
2024/01/13 07:16:28;;;;;;;6.28;4.80;;;5.50;78.90;;;;;;4736109;30;20034;-87
2024/01/13 07:18:53;;;;;;;6.13;4.70;;;5.50;78.90;;;;;;4734980;30;20103;-88
2024/01/13 07:21:19;;;;;;;6.00;4.85;;;5.50;78.90;;;;;;4751234;30;20039;-88
2024/01/13 07:23:45;;;;;;;6.18;4.88;;;5.50;78.80;;;;;;4723849;30;20036;-88
2024/01/13 07:26:11;;;;;;;6.28;4.88;;;5.50;78.80;;;;;;4721763;30;20405;-88
2024/01/13 07:28:37;;;;;;;6.13;4.97;;;5.60;78.90;;;;;;4735165;30;20045;-88
2024/01/13 07:31:03;;;;;;;6.57;4.65;;;5.50;78.80;;;;;;4715350;30;20036;-88
2024/01/13 07:33:29;;;;;;;5.80;4.60;;;5.50;78.80;;;;;;4736979;30;20044;-88
2024/01/13 07:35:55;;;;;;;6.60;5.05;;;5.50;78.80;;;;;;4736591;30;20028;-88
2024/01/13 07:38:21;;;;;;;6.80;5.07;;;5.50;78.80;;;;;;4720510;30;20064;-88
2024/01/13 07:40:46;;;;;;;6.90;4.95;;;5.50;78.80;;;;;;4722095;30;20044;-88
2024/01/13 07:43:12;;;;;;;6.65;4.85;;;5.60;78.90;;;;;;4744541;30;20082;-93
2024/01/13 07:45:38;;;;;;;6.38;4.90;;;5.50;78.80;;;;;;4737559;30;20038;-93
2024/01/13 07:48:04;;;;;;;6.45;4.82;;;5.50;78.80;;;;;;4732034;30;20490;-93
2024/01/13 07:50:30;;;;;;;6.70;5.10;;;5.60;78.90;;;;;;4721017;30;20053;-96
2024/01/13 07:52:56;;;;;;;7.15;4.88;;;5.60;78.80;;;;;;4732547;30;20047;-95
2024/01/13 07:55:21;;;;;;;6.82;5.07;;;5.50;78.80;;;;;;4741077;30;20170;-93
2024/01/13 07:57:47;;;;;;;6.82;4.82;;;5.60;78.80;;;;;;4725124;30;20035;-94
2024/01/13 08:00:13;;;;;;;7.00;4.95;;;5.60;78.90;;;;;;4735996;30;20035;-95
2024/01/13 08:02:39;;;;;;;6.70;4.95;;;5.60;78.80;;;;;;4725884;30;20056;-93
2024/01/13 08:05:05;;;;;;;6.50;4.75;;;5.60;78.80;;;;;;4742550;30;20032;-92
2024/01/13 08:07:31;;;;;;;6.45;4.32;;;5.60;78.80;;;;;;4741462;30;20129;-92
2024/01/13 08:09:56;;;;;;;6.65;4.82;;;5.60;78.80;;;;;;4716492;30;20402;-92
2024/01/13 08:12:22;;;;;;;7.10;5.25;;;5.60;78.80;;;;;;4730544;30;20592;-93
2024/01/13 08:14:48;;;;;;;6.28;4.70;;;5.60;78.80;;;;;;4747603;30;20100;-92
2024/01/13 08:17:14;;;;;;;6.80;5.10;;;5.60;78.80;;;;;;4735804;30;20033;-92
2024/01/13 08:19:40;;;;;;;7.95;5.28;;;5.60;78.80;;;;;;4727520;30;20044;-93
2024/01/13 08:22:06;;;;;;;7.50;5.53;;;5.60;78.80;;;;;;4751652;30;20045;-92
2024/01/13 08:24:32;;;;;;;7.70;5.38;;;5.60;78.80;;;;;;4743069;30;20036;-91
2024/01/13 08:26:58;;;;;;;6.90;5.03;;;5.60;78.80;;;;;;4725520;30;20028;-92
2024/01/13 08:29:23;;;;;;;7.78;5.28;;;5.60;78.80;;;;;;4742509;30;20062;-93
2024/01/13 08:31:50;;;;;;;6.55;4.75;;;5.60;78.80;;;;;;4733332;30;20064;-92
2024/01/13 08:34:17;;;;;;;6.25;4.60;;;5.60;78.70;;;;;;4731650;30;20103;-92
2024/01/13 08:36:43;;;;;;;7.28;5.28;;;5.70;78.80;;;;;;4735577;30;20544;-89
2024/01/13 08:39:10;;;;;;;8.40;5.72;;;5.60;78.80;;;;;;4731434;30;20072;-92
2024/01/13 08:41:36;;;;;;;7.38;5.22;;;5.70;78.80;;;;;;4731071;30;20494;-90
2024/01/13 08:44:03;;;;;;;8.32;5.80;;;5.70;78.80;;;;;;4733508;30;20029;-93
2024/01/13 08:46:29;;;;;;;7.68;5.32;;;5.70;78.80;;;;;;4734729;30;20533;-92
2024/01/13 08:48:55;;;;;;;7.45;5.25;;;5.70;79.40;;;;;;4733528;30;20054;-92
2024/01/13 08:51:20;;;;;;;7.85;5.80;;;5.60;78.70;;;;;;4721838;30;20036;-93
2024/01/13 08:53:46;;;;;;;8.10;5.30;;;5.70;78.80;;;;;;4734880;30;20239;-92
2024/01/13 08:56:14;;;;;;;7.63;5.30;;;5.70;78.80;;;;;;4734650;30;20029;-94
2024/01/13 08:58:40;;;;;;;7.85;5.40;;;5.70;78.80;;;;;;4720914;30;20502;-92
2024/01/13 09:01:05;;;;;;;8.43;5.95;;;5.70;78.80;;;;;;4718714;30;20106;-91
2024/01/13 09:03:31;;;;;;;8.43;5.85;;;5.70;78.80;;;;;;4722287;30;20066;-94
2024/01/13 09:05:57;;;;;;;9.00;5.70;;;5.70;78.80;;;;;;4733620;30;20037;-89
2024/01/13 09:08:23;;;;;;;7.75;5.68;;;5.70;78.80;;;;;;4733666;30;20051;-89
2024/01/13 09:10:49;;;;;;;8.63;5.82;;;5.70;78.80;;;;;;4731590;30;20040;-90
2024/01/13 09:13:14;;;;;;;7.65;5.95;;;5.70;78.70;;;;;;4731243;30;20029;-90
2024/01/13 09:15:40;;;;;;;8.48;6.00;;;5.70;78.70;;;;;;4721540;30;20094;-89
2024/01/13 09:18:08;;;;;;;7.47;5.78;;;5.70;78.80;;;;;;4731014;30;20032;-94
2024/01/13 09:20:34;;;;;;;8.35;6.20;;;5.80;78.80;;;;;;4723019;30;20075;-87
2024/01/13 09:22:59;;;;;;;8.60;6.10;;;5.70;78.70;;;;;;4734917;30;20068;-88
2024/01/13 09:25:25;;;;;;;8.15;6.05;;;5.70;78.70;;;;;;4715223;30;20410;-88
2024/01/13 09:27:54;;;;;;;7.88;5.70;;;5.80;78.80;;;;;;4718669;30;20037;-89
2024/01/13 09:30:22;;;;;;;8.43;5.78;;;5.80;78.80;;;;;;4732593;30;20072;-87
2024/01/13 09:32:48;;;;;;;8.52;5.88;;;5.80;78.80;;;;;;4728616;30;20055;-88
2024/01/13 09:35:13;;;;;;;8.85;6.15;;;5.80;78.80;;;;;;4746873;30;20040;-96
2024/01/13 09:37:39;;;;;;;7.93;5.85;;;5.80;78.80;;;;;;4715403;30;20476;-93
2024/01/13 09:40:06;;;;;;;8.55;6.38;;;5.80;78.80;;;;;;4720500;30;20029;-91
2024/01/13 09:43:06;;;;;;;7.63;5.50;;;5.80;78.80;;;;;;4734484;30;20126;-91
2024/01/13 09:45:33;;;;;;;8.52;6.07;;;5.80;78.80;;;;;;4713081;30;20029;-90
2024/01/13 09:48:02;;;;;;;8.02;5.57;;;5.80;78.70;;;;;;4739944;30;20030;-89
2024/01/13 09:50:27;;;;;;;8.65;6.00;;;5.80;78.70;;;;;;4724161;30;20137;-89
2024/01/13 09:52:54;;;;;;;7.75;5.53;;;5.80;78.70;;;;;;4721908;30;20052;-89
2024/01/13 09:55:21;;;;;;;7.72;5.43;;;5.80;78.70;;;;;;4748076;30;20035;-89
2024/01/13 09:57:47;;;;;;;8.65;6.13;;;5.80;78.80;;;;;;4725419;30;20032;-91
2024/01/13 10:00:14;;;;;;;8.50;5.85;;;5.80;78.70;;;;;;4732261;30;20036;-90
2024/01/13 10:02:40;;;;;;;7.70;5.05;;;5.80;78.70;;;;;;4732904;30;20136;-86
2024/01/13 10:05:06;;;;;;;7.63;5.97;;;5.80;78.70;;;;;;4726377;30;20060;-87
2024/01/13 10:07:38;;;;;;;8.27;5.72;;;5.80;78.70;;;;;;4729146;30;20036;-94
2024/01/13 10:10:06;;;;;;;8.07;5.75;;;5.90;78.80;;;;;;4735866;30;20039;-96
2024/01/13 10:12:33;;;;;;;7.47;5.20;;;5.90;78.70;;;;;;4750137;30;20059;-92
2024/01/13 10:14:58;;;;;;;7.65;5.55;;;5.80;78.70;;;;;;4722348;30;20028;-93
2024/01/13 10:17:25;;;;;;;7.95;5.80;;;5.90;78.70;;;;;;4723433;30;20025;-92
2024/01/13 10:19:51;;;;;;;7.78;5.95;;;5.90;78.70;;;;;;4724789;30;20064;-92
2024/01/13 10:22:18;;;;;;;6.75;5.20;;;5.90;78.70;;;;;;4723403;30;20100;-90
2024/01/13 10:24:44;;;;;;;6.78;5.07;;;5.90;78.70;;;;;;4734350;30;20029;-95
2024/01/13 10:27:10;;;;;;;7.28;5.38;;;5.90;78.70;;;;;;4733728;30;20067;-96
2024/01/13 10:29:35;;;;;;;7.18;5.35;;;5.90;78.70;;;;;;4722536;30;20068;-91
2024/01/13 10:32:02;;;;;;;7.72;5.72;;;5.90;78.60;;;;;;4736508;30;20040;-91
2024/01/13 10:34:27;;;;;;;6.80;5.13;;;6.00;78.70;;;;;;4727966;30;20044;-92
2024/01/13 10:37:10;;;;;;;6.85;5.28;;;5.90;78.60;;;;;;4733523;30;20073;-95
2024/01/13 10:39:36;;;;;;;6.85;4.72;;;5.90;78.70;;;;;;4717286;30;20067;-95
2024/01/13 10:42:07;;;;;;;8.00;5.38;;;6.00;78.70;;;;;;4727776;30;20033;-95
2024/01/13 10:44:40;;;;;;;7.18;5.40;;;5.90;78.70;;;;;;4731022;30;20229;-95
2024/01/13 10:47:12;;;;;;;8.05;5.50;;;6.00;78.70;;;;;;4718112;30;20044;-92
2024/01/13 10:49:40;;;;;;;7.68;5.65;;;6.00;78.70;;;;;;4713874;30;20067;-92
2024/01/13 10:52:06;;;;;;;7.30;5.55;;;5.90;78.60;;;;;;4726657;30;20063;-91
2024/01/13 10:54:33;;;;;;;6.13;4.90;;;6.00;78.70;;;;;;4726174;30;20104;-91
2024/01/13 10:56:59;;;;;;;6.60;5.22;;;6.00;78.70;;;;;;4734088;30;20036;-92
2024/01/13 10:59:30;;;;;;;6.78;5.07;;;6.00;78.70;;;;;;4711727;30;20488;-92
2024/01/13 11:01:59;;;;;;;7.05;5.20;;;6.00;78.70;;;;;;4738449;30;20029;-91
2024/01/13 11:04:25;;;;;;;7.90;5.63;;;6.00;78.60;;;;;;4732786;30;20143;-91
2024/01/13 11:06:51;;;;;;;6.97;5.07;;;6.00;78.60;;;;;;4743498;30;20061;-90
2024/01/13 11:09:19;;;;;;;7.28;5.18;;;6.00;78.60;;;;;;4728784;30;20039;-91
2024/01/13 11:12:17;;;;;;;7.75;5.68;;;6.00;78.60;;;;;;4727915;30;20100;-91
2024/01/13 11:15:08;;;;;;;6.82;5.20;;;6.00;78.70;;;;;;4725259;30;20033;-90
2024/01/13 11:17:34;;;;;;;6.50;5.00;;;6.00;78.60;;;;;;4734333;30;20064;-91
2024/01/13 11:20:03;;;;;;;7.43;5.45;;;6.00;78.60;;;;;;4728543;30;20530;-91
2024/01/13 11:22:56;;;;;;;6.90;5.32;;;6.00;78.60;;;;;;4730730;30;20056;-91
2024/01/13 11:25:25;;;;;;;6.47;4.97;;;6.00;78.70;;;;;;4729558;30;20056;-90
2024/01/13 11:27:59;;;;;;;7.05;5.28;;;6.10;78.70;;;;;;4727758;30;20037;-92
2024/01/13 11:30:40;;;;;;;6.80;5.30;;;6.00;78.60;;;;;;4716513;30;20398;-91
2024/01/13 11:33:10;;;;;;;6.85;5.38;;;6.00;78.60;;;;;;4716757;30;20127;-91
2024/01/13 11:35:40;;;;;;;6.68;4.95;;;6.00;78.60;;;;;;4724203;30;20037;-91
2024/01/13 11:38:06;;;;;;;6.63;4.97;;;6.00;78.60;;;;;;4712339;30;20036;-92
2024/01/13 11:40:32;;;;;;;7.28;5.20;;;6.10;78.70;;;;;;4716273;30;20080;-91
2024/01/13 11:43:18;;;;;;;6.78;4.85;;;6.10;78.70;;;;;;4719070;30;20114;-93
2024/01/13 11:45:47;;;;;;;;;;;6.10;78.70;;;;;;4716695;30;20029;-91
2024/01/13 11:48:33;;;;;;;5.97;4.32;;;6.10;78.60;;;;;;4746463;30;20012;-91
2024/01/13 11:50:59;;;;;;;5.70;4.32;;;6.10;78.50;;;;;;4729129;30;20025;-89
2024/01/13 11:53:42;;;;;;;7.30;5.15;;;6.10;78.50;;;;;;4731404;30;20061;-82
2024/01/13 11:56:10;;;;;;;5.53;4.13;;;6.10;78.70;;;;;;4745889;30;20036;-91
2024/01/13 11:58:37;;;;;;;6.95;5.18;;;6.10;78.60;;;;;;4727882;30;20044;-85
2024/01/13 12:01:07;;;;;;;7.25;5.50;;;6.10;78.60;;;;;;4731517;30;20033;-93
2024/01/13 12:03:33;;;;;;;5.78;4.47;;;6.10;78.70;;;;;;4729077;30;20128;-91
2024/01/13 12:05:59;;;;;;;7.18;5.45;;;6.10;78.70;;;;;;4732959;30;20566;-92
2024/01/13 12:08:26;;;;;;;6.80;5.38;;;6.10;78.60;;;;;;4729196;30;20101;-92
2024/01/13 12:10:53;;;;;;;6.85;5.25;;;6.10;78.60;;;;;;4715710;30;20032;-91
2024/01/13 12:13:23;;;;;;;7.97;5.55;;;6.10;78.60;;;;;;4732064;30;20346;-90
2024/01/13 12:15:49;;;;;;;7.03;5.63;;;6.10;78.60;;;;;;4729176;30;20351;-92
2024/01/13 12:18:25;;;;;;;7.80;5.63;;;6.10;78.60;;;;;;4735742;30;20035;-94
2024/01/13 12:21:12;;;;;;;6.40;4.85;;;6.20;78.70;;;;;;4717711;30;20096;-94
2024/01/13 12:23:40;;;;;;;8.05;5.97;;;6.10;78.60;;;;;;4729760;30;20039;-92
2024/01/13 12:26:06;;;;;;;7.65;5.93;;;6.20;78.60;;;;;;4733803;30;20056;-92
2024/01/13 12:28:32;;;;;;;8.15;5.97;;;6.10;78.60;;;;;;4729111;30;20045;-93
2024/01/13 12:31:05;;;;;;;7.45;5.68;;;6.20;78.70;;;;;;4716705;30;20229;-94
2024/01/13 12:33:34;;;;;;;8.98;6.65;;;6.20;78.60;;;;;;4735981;30;20065;-93
2024/01/13 12:36:01;;;;;;;8.45;5.97;;;6.20;78.60;;;;;;4753121;30;20063;-95
2024/01/13 12:38:30;;;;;;;8.07;5.90;;;6.20;78.60;;;;;;4732815;30;20036;-95
2024/01/13 12:40:59;;;;;;;8.82;6.57;;;6.20;78.60;;;;;;4729753;30;20192;-95
2024/01/13 12:43:26;;;;;;;7.50;5.65;;;6.20;78.60;;;;;;4721575;30;20028;-93
2024/01/13 12:45:54;;;;;;;8.73;6.57;;;6.20;78.60;;;;;;4741848;30;20028;-90
2024/01/13 12:48:20;;;;;;;8.05;5.90;;;6.20;78.60;;;;;;4722015;30;20028;-90
2024/01/13 12:50:46;;;;;;;9.55;6.70;;;6.20;78.60;;;;;;4737499;30;20175;-92
2024/01/13 12:53:12;;;;;;;9.20;6.60;;;6.20;78.60;;;;;;4723272;30;20482;-92
2024/01/13 12:55:39;;;;;;;8.73;6.45;;;6.20;78.60;;;;;;4732639;30;20034;-93